Time;durP1;ratioP1;P1;durP2;ratioP2;P2;SDS_P1;SDS_P2;PMS_P1;PMS_P2;Temp;Humidity;BMP_temperature;BMP_pressure;BME280_temperature;BME280_humidity;BME280_pressure;Samples;Min_cycle;Max_cycle;Signal;HPM_P1;HPM_P2
2022/08/17 00:00:55;;;;;;;13.70;6.15;;;;;;;;;;5048365;28;20448;-45
2022/08/17 00:03:24;;;;;;;8.93;5.57;;;;;;;;;;5042905;28;20029;-45
2022/08/17 00:05:54;;;;;;;7.55;5.45;;;;;;;;;;5043959;28;20035;-45
2022/08/17 00:08:23;;;;;;;8.82;5.50;;;;;;;;;;5044656;28;20503;-45
2022/08/17 00:10:50;;;;;;;11.43;5.80;;;;;;;;;;5046606;28;20048;-45
2022/08/17 00:13:30;;;;;;;13.85;6.22;;;;;;;;;;5045361;28;20040;-47
2022/08/17 00:16:00;;;;;;;10.38;5.70;;;;;;;;;;5043744;28;20029;-45
2022/08/17 00:18:28;;;;;;;7.93;5.57;;;;;;;;;;5043559;28;20038;-48
2022/08/17 00:20:55;;;;;;;11.90;5.53;;;;;;;;;;5043060;28;20108;-44
2022/08/17 00:23:22;;;;;;;8.68;5.38;;;;;;;;;;5041266;28;20069;-46
2022/08/17 00:25:48;;;;;;;10.50;5.10;;;;;;;;;;5043896;28;20037;-45
2022/08/17 00:28:15;;;;;;;9.57;5.75;;;;;;;;;;5045157;28;20060;-46
2022/08/17 00:30:46;;;;;;;8.95;6.20;;;;;;;;;;5044562;28;20048;-45
2022/08/17 00:33:15;;;;;;;12.52;6.35;;;;;;;;;;5042237;28;20532;-45
2022/08/17 00:35:42;;;;;;;12.57;5.75;;;;;;;;;;5025986;28;20025;-45
2022/08/17 00:38:10;;;;;;;13.52;5.95;;;;;;;;;;5041608;28;20087;-45
2022/08/17 00:40:41;;;;;;;9.02;6.03;;;;;;;;;;5045685;28;20033;-45
2022/08/17 00:43:35;;;;;;;9.10;5.35;;;;;;;;;;5042819;28;20029;-45
2022/08/17 00:46:04;;;;;;;8.07;5.43;;;;;;;;;;5042651;28;20036;-47
2022/08/17 00:48:31;;;;;;;12.55;6.30;;;;;;;;;;5043914;28;20036;-48
2022/08/17 00:51:04;;;;;;;10.15;5.95;;;;;;;;;;5044754;28;20017;-48
2022/08/17 00:53:32;;;;;;;10.63;5.80;;;;;;;;;;5041507;28;20036;-46
2022/08/17 00:56:02;;;;;;;7.25;5.60;;;;;;;;;;5042527;28;20048;-47
2022/08/17 00:58:30;;;;;;;12.02;6.13;;;;;;;;;;5043127;28;20025;-45
2022/08/17 01:00:56;;;;;;;10.75;5.68;;;;;;;;;;5040839;28;20025;-44
2022/08/17 01:03:24;;;;;;;6.82;5.53;;;;;;;;;;5044480;28;20043;-44
2022/08/17 01:05:55;;;;;;;6.13;5.53;;;;;;;;;;5039517;28;20025;-45
2022/08/17 01:08:24;;;;;;;14.13;5.55;;;;;;;;;;5043168;28;20441;-47
2022/08/17 01:10:54;;;;;;;7.18;4.75;;;;;;;;;;5043711;28;20477;-45
2022/08/17 01:13:21;;;;;;;13.32;5.97;;;;;;;;;;5045008;28;20505;-49
2022/08/17 01:16:03;;;;;;;11.13;5.82;;;;;;;;;;5042248;28;20032;-45
2022/08/17 01:18:30;;;;;;;;;;;;;;;;;;5042174;28;20030;-45
2022/08/17 01:21:03;;;;;;;6.20;4.75;;;;;;;;;;5044744;28;19917;-44
2022/08/17 01:23:29;;;;;;;8.88;5.03;;;;;;;;;;5042842;28;20033;-49
2022/08/17 01:25:57;;;;;;;6.72;5.00;;;;;;;;;;5042994;28;20040;-45
2022/08/17 01:28:25;;;;;;;9.65;5.20;;;;;;;;;;5041718;28;20040;-50
2022/08/17 01:30:53;;;;;;;11.88;6.22;;;;;;;;;;5044105;28;20110;-44
2022/08/17 01:33:19;;;;;;;8.25;5.68;;;;;;;;;;5043977;28;20358;-45
2022/08/17 01:35:45;;;;;;;12.50;6.43;;;;;;;;;;5044024;28;20047;-46
2022/08/17 01:38:11;;;;;;;8.40;6.03;;;;;;;;;;5042899;28;20103;-45
2022/08/17 01:40:43;;;;;;;15.27;7.18;;;;;;;;;;5042088;28;20923;-45
2022/08/17 01:43:18;;;;;;;;;;;;;;;;;;5044319;28;20413;-45
2022/08/17 01:45:47;;;;;;;10.75;6.88;;;;;;;;;;5041727;28;19917;-45
2022/08/17 01:48:13;;;;;;;11.18;6.20;;;;;;;;;;5042964;28;20542;-44
2022/08/17 01:50:43;;;;;;;11.10;6.55;;;;;;;;;;5041852;28;20041;-46
2022/08/17 01:53:17;;;;;;;11.85;6.95;;;;;;;;;;5040566;28;20485;-45
2022/08/17 01:55:48;;;;;;;11.25;6.72;;;;;;;;;;5042445;28;20045;-46
2022/08/17 01:58:14;;;;;;;12.57;6.82;;;;;;;;;;5042815;28;20400;-45
2022/08/17 02:00:40;;;;;;;10.13;6.53;;;;;;;;;;5043163;28;20055;-45
2022/08/17 02:03:07;;;;;;;10.57;6.97;;;;;;;;;;5040803;28;20025;-46
2022/08/17 02:05:34;;;;;;;10.18;6.95;;;;;;;;;;5028258;28;20318;-47
2022/08/17 02:08:01;;;;;;;13.80;7.40;;;;;;;;;;5040648;28;20755;-45
2022/08/17 02:10:28;;;;;;;13.98;7.50;;;;;;;;;;5045292;28;20354;-46
2022/08/17 02:12:54;;;;;;;11.13;7.20;;;;;;;;;;5038688;28;20048;-50
2022/08/17 02:15:20;;;;;;;15.50;7.35;;;;;;;;;;5043195;28;20041;-44
2022/08/17 02:17:46;;;;;;;16.10;8.45;;;;;;;;;;5042673;28;20515;-44
2022/08/17 02:20:12;;;;;;;18.48;9.27;;;;;;;;;;5044852;28;20480;-45
2022/08/17 02:22:42;;;;;;;13.15;8.70;;;;;;;;;;5046583;28;20047;-46
2022/08/17 02:25:10;;;;;;;26.63;9.70;;;;;;;;;;5048840;28;20025;-46
2022/08/17 02:27:37;;;;;;;21.63;10.15;;;;;;;;;;5047006;28;20037;-46
2022/08/17 02:30:05;;;;;;;21.83;9.80;;;;;;;;;;5043210;28;20061;-44
2022/08/17 02:32:31;;;;;;;17.17;9.75;;;;;;;;;;5044869;28;20041;-49
2022/08/17 02:34:57;;;;;;;20.25;10.45;;;;;;;;;;5047834;28;20029;-44
2022/08/17 02:37:24;;;;;;;18.50;10.57;;;;;;;;;;5046051;28;20041;-46
2022/08/17 02:39:50;;;;;;;25.50;10.80;;;;;;;;;;5043282;28;20465;-45
2022/08/17 02:42:15;;;;;;;26.20;10.90;;;;;;;;;;5044543;28;20021;-45
2022/08/17 02:44:41;;;;;;;18.73;10.05;;;;;;;;;;5044170;28;20029;-45
2022/08/17 02:47:08;;;;;;;19.05;10.07;;;;;;;;;;5025328;28;20028;-46
2022/08/17 02:49:34;;;;;;;16.63;10.30;;;;;;;;;;5046095;28;20489;-44
2022/08/17 02:52:03;;;;;;;21.48;11.20;;;;;;;;;;5043372;28;20045;-48
2022/08/17 02:54:29;;;;;;;16.92;10.13;;;;;;;;;;5044486;28;20087;-46
2022/08/17 02:56:55;;;;;;;21.45;10.70;;;;;;;;;;5045037;28;20057;-45
2022/08/17 02:59:21;;;;;;;20.70;10.68;;;;;;;;;;5043117;28;20032;-46
2022/08/17 03:01:47;;;;;;;25.08;10.68;;;;;;;;;;5045210;28;20070;-48
2022/08/17 03:04:12;;;;;;;22.67;10.35;;;;;;;;;;5043562;28;20596;-46
2022/08/17 03:06:38;;;;;;;17.23;9.25;;;;;;;;;;5045703;28;20033;-48
2022/08/17 03:09:04;;;;;;;17.42;8.90;;;;;;;;;;5044898;28;20041;-46
2022/08/17 03:11:29;;;;;;;20.98;8.77;;;;;;;;;;5043963;28;20389;-48
2022/08/17 03:13:55;;;;;;;24.85;8.35;;;;;;;;;;5045947;28;20393;-51
2022/08/17 03:16:21;;;;;;;19.45;7.70;;;;;;;;;;5044637;28;20121;-51
2022/08/17 03:18:47;;;;;;;15.30;6.57;;;;;;;;;;5046683;28;20017;-48
2022/08/17 03:21:12;;;;;;;18.88;6.47;;;;;;;;;;5045732;28;20467;-51
2022/08/17 03:23:40;;;;;;;13.00;5.63;;;;;;;;;;5042783;28;20156;-51
2022/08/17 03:26:09;;;;;;;26.20;6.32;;;;;;;;;;5042924;28;20037;-48
2022/08/17 03:28:36;;;;;;;12.88;6.43;;;;;;;;;;5047603;28;20021;-52
2022/08/17 03:31:02;;;;;;;10.25;6.78;;;;;;;;;;5049652;28;20052;-53
2022/08/17 03:33:28;;;;;;;16.33;7.47;;;;;;;;;;5046784;28;20032;-53
2022/08/17 03:35:54;;;;;;;14.48;7.00;;;;;;;;;;5042532;28;20425;-52
2022/08/17 03:38:20;;;;;;;8.52;5.60;;;;;;;;;;5044563;28;20427;-52
2022/08/17 03:40:47;;;;;;;9.65;4.75;;;;;;;;;;5044605;28;20525;-52
2022/08/17 03:43:13;;;;;;;6.78;4.10;;;;;;;;;;5046064;28;20489;-47
2022/08/17 03:56:47;;;;;;;10.10;3.80;;;;;;;;;;5042692;28;20428;-50
2022/08/17 03:59:15;;;;;;;4.97;3.42;;;;;;;;;;5042020;28;20102;-51
2022/08/17 04:01:46;;;;;;;9.68;3.60;;;;;;;;;;5044903;28;20389;-53
2022/08/17 04:04:12;;;;;;;6.97;3.63;;;;;;;;;;5044791;28;20021;-51
2022/08/17 04:06:40;;;;;;;5.38;3.20;;;;;;;;;;5043423;28;20033;-49
2022/08/17 04:09:06;;;;;;;6.50;3.28;;;;;;;;;;5045667;28;20103;-49
2022/08/17 04:11:33;;;;;;;10.68;3.83;;;;;;;;;;5040907;28;20033;-51
2022/08/17 04:14:00;;;;;;;8.02;3.60;;;;;;;;;;5044123;28;20033;-49
2022/08/17 04:16:26;;;;;;;9.63;3.25;;;;;;;;;;5041233;28;20511;-54
2022/08/17 04:18:52;;;;;;;6.03;3.60;;;;;;;;;;5043334;28;20060;-51
2022/08/17 04:21:18;;;;;;;9.45;5.57;;;;;;;;;;5042828;28;20041;-47
2022/08/17 04:23:44;;;;;;;12.38;5.63;;;;;;;;;;5042531;28;20029;-49
2022/08/17 04:26:11;;;;;;;8.15;5.05;;;;;;;;;;5046360;28;20060;-48
2022/08/17 04:28:37;;;;;;;12.98;5.70;;;;;;;;;;5043687;28;20118;-47
2022/08/17 04:31:03;;;;;;;14.60;6.03;;;;;;;;;;5045174;28;20481;-46
2022/08/17 04:33:29;;;;;;;13.07;6.18;;;;;;;;;;5045165;28;20037;-48
2022/08/17 04:35:58;;;;;;;11.20;5.82;;;;;;;;;;5043538;28;20024;-50
2022/08/17 04:38:27;;;;;;;11.80;5.40;;;;;;;;;;5042993;28;20120;-47
2022/08/17 04:43:42;;;;;;;10.65;5.63;;;;;;;;;;5042419;28;20421;-47
2022/08/17 04:46:10;;;;;;;10.15;5.70;;;;;;;;;;5042258;28;20098;-46
2022/08/17 04:48:39;;;;;;;11.63;5.63;;;;;;;;;;5045199;28;20024;-45
2022/08/17 04:51:33;;;;;;;14.55;6.07;;;;;;;;;;5042467;28;20492;-50
2022/08/17 04:54:08;;;;;;;10.00;5.47;;;;;;;;;;5045997;28;20544;-47
2022/08/17 04:56:34;;;;;;;7.97;6.05;;;;;;;;;;5043080;28;20045;-46
2022/08/17 04:59:03;;;;;;;12.48;5.85;;;;;;;;;;5043928;28;20098;-45
2022/08/17 05:01:33;;;;;;;10.65;5.18;;;;;;;;;;5038496;28;20498;-47
2022/08/17 05:04:03;;;;;;;15.93;6.18;;;;;;;;;;5044858;28;20741;-46
2022/08/17 05:06:29;;;;;;;9.68;5.45;;;;;;;;;;5042223;28;20040;-45
2022/08/17 05:08:56;;;;;;;12.90;6.72;;;;;;;;;;5042225;28;20151;-47
2022/08/17 05:11:24;;;;;;;7.57;5.65;;;;;;;;;;5043821;28;20115;-46
2022/08/17 05:13:51;;;;;;;8.65;6.25;;;;;;;;;;5041696;28;20076;-46
2022/08/17 05:16:18;;;;;;;10.50;7.07;;;;;;;;;;5044437;28;20123;-45
2022/08/17 05:18:44;;;;;;;8.30;6.40;;;;;;;;;;5041776;28;20029;-47
2022/08/17 05:21:10;;;;;;;11.15;6.43;;;;;;;;;;5043377;28;20025;-47
2022/08/17 05:23:36;;;;;;;11.63;6.70;;;;;;;;;;5039581;28;20530;-48
2022/08/17 05:26:02;;;;;;;10.15;6.82;;;;;;;;;;5040498;28;20040;-45
2022/08/17 05:28:28;;;;;;;11.93;5.63;;;;;;;;;;5041495;28;20021;-46
2022/08/17 05:30:57;;;;;;;11.70;6.10;;;;;;;;;;5043506;28;20032;-46
2022/08/17 05:33:26;;;;;;;9.43;5.53;;;;;;;;;;5043835;28;20017;-46
2022/08/17 05:35:54;;;;;;;9.65;5.47;;;;;;;;;;5039329;28;20037;-48
2022/08/17 05:38:22;;;;;;;8.10;5.70;;;;;;;;;;5042654;28;20516;-46
2022/08/17 05:40:48;;;;;;;10.35;5.85;;;;;;;;;;5043635;28;20037;-46
2022/08/17 05:43:16;;;;;;;11.60;5.72;;;;;;;;;;5042985;28;20033;-50
2022/08/17 05:45:51;;;;;;;11.00;5.70;;;;;;;;;;5044861;28;20057;-46
2022/08/17 05:48:17;;;;;;;8.20;5.93;;;;;;;;;;5042189;28;20035;-44
2022/08/17 05:50:54;;;;;;;8.30;5.50;;;;;;;;;;5044186;28;20021;-46
2022/08/17 05:53:50;;;;;;;12.43;5.18;;;;;;;;;;5043200;28;20037;-47
2022/08/17 05:56:24;;;;;;;11.88;5.40;;;;;;;;;;5047859;28;20081;-49
2022/08/17 05:59:14;;;;;;;7.72;5.63;;;;;;;;;;5046393;28;20132;-45
2022/08/17 06:02:04;;;;;;;9.55;5.25;;;;;;;;;;5044935;28;20032;-46
2022/08/17 06:04:54;;;;;;;12.77;6.40;;;;;;;;;;5044180;28;20032;-46
2022/08/17 06:07:44;;;;;;;6.85;5.38;;;;;;;;;;5045447;28;20120;-51
2022/08/17 06:10:46;;;;;;;12.20;5.30;;;;;;;;;;5046244;28;20114;-46
2022/08/17 06:13:14;;;;;;;9.20;5.53;;;;;;;;;;5047022;28;20496;-46
2022/08/17 06:15:55;;;;;;;7.57;5.55;;;;;;;;;;5044311;28;20094;-46
2022/08/17 06:18:27;;;;;;;7.97;5.57;;;;;;;;;;5038105;28;20044;-50
2022/08/17 06:20:57;;;;;;;13.48;6.20;;;;;;;;;;5038490;28;20029;-45
2022/08/17 06:23:38;;;;;;;10.38;5.47;;;;;;;;;;5042293;28;20037;-46
2022/08/17 06:26:30;;;;;;;11.30;5.73;;;;;;;;;;5045616;28;20363;-46
2022/08/17 06:29:01;;;;;;;10.80;5.72;;;;;;;;;;5035421;28;20401;-46
2022/08/17 06:31:32;;;;;;;7.70;5.47;;;;;;;;;;5029531;28;20045;-47
2022/08/17 06:34:01;;;;;;;8.77;5.43;;;;;;;;;;5043329;28;20021;-46
2022/08/17 06:36:55;;;;;;;13.05;5.22;;;;;;;;;;5044361;28;20045;-45
2022/08/17 06:40:01;;;;;;;7.95;5.05;;;;;;;;;;5044170;28;20180;-46
2022/08/17 06:42:43;;;;;;;14.02;5.95;;;;;;;;;;5046467;28;20091;-47
2022/08/17 06:45:20;;;;;;;12.10;5.88;;;;;;;;;;5043393;28;20029;-45
2022/08/17 06:47:53;;;;;;;13.45;5.50;;;;;;;;;;5039422;28;20040;-49
2022/08/17 06:50:45;;;;;;;8.90;6.15;;;;;;;;;;5038327;28;20033;-45
2022/08/17 06:53:23;;;;;;;15.73;6.43;;;;;;;;;;5038596;28;20072;-49
2022/08/17 06:55:58;;;;;;;13.75;5.95;;;;;;;;;;5043171;28;20048;-47
2022/08/17 06:58:30;;;;;;;15.57;6.05;;;;;;;;;;5045496;28;20060;-45
2022/08/17 07:00:59;;;;;;;14.45;5.60;;;;;;;;;;5041760;28;20021;-46
2022/08/17 07:03:54;;;;;;;11.02;5.65;;;;;;;;;;5043349;28;20039;-48
2022/08/17 07:06:28;;;;;;;9.40;5.50;;;;;;;;;;5044864;28;20041;-52
2022/08/17 07:09:16;;;;;;;12.32;6.10;;;;;;;;;;5046098;28;20039;-47
2022/08/17 07:11:58;;;;;;;19.55;5.97;;;;;;;;;;5036190;28;20044;-47
2022/08/17 07:14:30;;;;;;;15.43;5.03;;;;;;;;;;5044114;28;20029;-50
2022/08/17 07:17:00;;;;;;;12.50;5.32;;;;;;;;;;5048295;28;20033;-48
2022/08/17 07:19:30;;;;;;;11.45;5.50;;;;;;;;;;5037840;28;20493;-47
2022/08/17 07:22:19;;;;;;;12.98;5.82;;;;;;;;;;5039582;28;20037;-45
2022/08/17 07:24:47;;;;;;;10.10;5.35;;;;;;;;;;5042744;28;20024;-45
2022/08/17 07:27:17;;;;;;;16.73;5.53;;;;;;;;;;5045433;28;20342;-45
2022/08/17 07:29:55;;;;;;;14.55;5.22;;;;;;;;;;5045060;28;20028;-50
2022/08/17 07:32:31;;;;;;;13.85;5.05;;;;;;;;;;5042652;28;20057;-47
2022/08/17 07:35:19;;;;;;;16.98;4.97;;;;;;;;;;5044625;28;20039;-45
2022/08/17 07:37:54;;;;;;;19.67;5.82;;;;;;;;;;5041180;28;20143;-49
2022/08/17 07:40:21;;;;;;;12.82;5.75;;;;;;;;;;5024197;28;20389;-47
2022/08/17 07:43:01;;;;;;;12.52;5.30;;;;;;;;;;5045228;28;20477;-50
2022/08/17 07:48:20;;;;;;;18.00;6.15;;;;;;;;;;5046097;28;20080;-53
2022/08/17 07:50:46;;;;;;;8.80;4.47;;;;;;;;;;5044645;28;20029;-48
2022/08/17 07:53:18;;;;;;;14.30;4.30;;;;;;;;;;5039623;28;20653;-48
2022/08/17 07:55:44;;;;;;;9.10;4.88;;;;;;;;;;5040115;28;20088;-46
2022/08/17 07:58:16;;;;;;;11.13;4.57;;;;;;;;;;5046075;28;20051;-50
2022/08/17 08:00:42;;;;;;;11.35;4.53;;;;;;;;;;5043640;28;20032;-45
2022/08/17 08:03:22;;;;;;;8.15;4.40;;;;;;;;;;5041860;28;20028;-50
2022/08/17 08:05:52;;;;;;;14.40;5.35;;;;;;;;;;5042901;28;20021;-48
2022/08/17 08:08:29;;;;;;;11.77;4.10;;;;;;;;;;5042306;28;20021;-50
2022/08/17 08:11:03;;;;;;;6.95;4.03;;;;;;;;;;5042451;28;20384;-47
2022/08/17 08:13:29;;;;;;;12.75;4.00;;;;;;;;;;5040546;28;20378;-49
2022/08/17 08:16:13;;;;;;;10.95;4.60;;;;;;;;;;5038306;28;20025;-50
2022/08/17 08:18:48;;;;;;;11.75;4.00;;;;;;;;;;5042737;28;20032;-49
2022/08/17 08:21:53;;;;;;;13.05;4.68;;;;;;;;;;5039898;28;20446;-46
2022/08/17 08:24:39;;;;;;;11.38;4.90;;;;;;;;;;5039559;28;20041;-51
2022/08/17 08:27:26;;;;;;;15.10;5.07;;;;;;;;;;5037488;28;20025;-50
2022/08/17 08:30:07;;;;;;;11.43;4.32;;;;;;;;;;5042432;28;20032;-50
2022/08/17 08:32:36;;;;;;;16.08;4.95;;;;;;;;;;5039606;28;20032;-49
2022/08/17 08:35:06;;;;;;;10.32;4.43;;;;;;;;;;5039739;28;20040;-46
2022/08/17 08:37:50;;;;;;;14.90;4.60;;;;;;;;;;5042926;28;20043;-49
2022/08/17 08:40:41;;;;;;;14.48;4.97;;;;;;;;;;5040120;28;20033;-48
2022/08/17 08:43:26;;;;;;;15.75;4.45;;;;;;;;;;5039884;28;20033;-47
2022/08/17 08:46:14;;;;;;;13.98;5.00;;;;;;;;;;5039155;28;20120;-46
2022/08/17 08:48:46;;;;;;;14.38;4.63;;;;;;;;;;5035817;28;20063;-51
2022/08/17 08:51:27;;;;;;;12.48;5.03;;;;;;;;;;5038253;28;20033;-48
2022/08/17 08:54:22;;;;;;;16.00;4.97;;;;;;;;;;5036881;28;20032;-51
2022/08/17 08:56:56;;;;;;;14.02;4.45;;;;;;;;;;5032822;28;20794;-53
2022/08/17 08:59:31;;;;;;;13.45;4.47;;;;;;;;;;5042312;28;20029;-49
2022/08/17 09:02:21;;;;;;;13.43;4.03;;;;;;;;;;5043103;28;20547;-53
2022/08/17 09:05:03;;;;;;;12.05;4.78;;;;;;;;;;5042080;28;20047;-49
2022/08/17 09:07:43;;;;;;;12.20;4.70;;;;;;;;;;5040532;28;20036;-49
2022/08/17 09:10:18;;;;;;;12.75;4.47;;;;;;;;;;5042532;28;20036;-52
2022/08/17 09:12:49;;;;;;;12.45;4.20;;;;;;;;;;5040580;28;20052;-52
2022/08/17 09:15:32;;;;;;;12.98;4.05;;;;;;;;;;5041866;28;20400;-52
2022/08/17 09:18:09;;;;;;;17.13;4.68;;;;;;;;;;5041162;28;20080;-48
2022/08/17 09:20:43;;;;;;;13.02;3.80;;;;;;;;;;5040087;28;20057;-50
2022/08/17 09:23:30;;;;;;;14.43;4.35;;;;;;;;;;5040754;28;20041;-49
2022/08/17 09:26:04;;;;;;;12.10;4.60;;;;;;;;;;5041628;28;20055;-49
2022/08/17 09:28:34;;;;;;;13.63;3.88;;;;;;;;;;5042729;28;20488;-52
2022/08/17 09:31:06;;;;;;;11.38;3.72;;;;;;;;;;5044491;28;20041;-51
2022/08/17 09:33:37;;;;;;;11.13;3.75;;;;;;;;;;5041804;28;20087;-52
2022/08/17 09:36:10;;;;;;;8.83;3.77;;;;;;;;;;5045154;28;20022;-52
2022/08/17 09:38:54;;;;;;;8.98;4.30;;;;;;;;;;5044804;28;20546;-50
2022/08/17 09:41:45;;;;;;;14.48;3.95;;;;;;;;;;5046234;28;20045;-51
2022/08/17 09:44:32;;;;;;;8.30;4.25;;;;;;;;;;5044475;28;20024;-53
2022/08/17 09:47:11;;;;;;;16.45;4.03;;;;;;;;;;5044307;28;20037;-51
2022/08/17 09:50:23;;;;;;;13.95;4.22;;;;;;;;;;5047476;28;20025;-50
2022/08/17 09:52:55;;;;;;;17.17;4.22;;;;;;;;;;4998944;28;20045;-48
2022/08/17 09:55:27;;;;;;;10.38;4.05;;;;;;;;;;4996070;28;20683;-52
2022/08/17 09:58:08;;;;;;;7.97;3.90;;;;;;;;;;5001536;28;20128;-52
2022/08/17 10:00:39;;;;;;;10.60;4.47;;;;;;;;;;5005241;28;20030;-47
2022/08/17 10:03:27;;;;;;;7.13;3.60;;;;;;;;;;5003914;28;20197;-47
2022/08/17 10:06:21;;;;;;;10.50;4.20;;;;;;;;;;4997037;28;20040;-49
2022/08/17 10:08:50;;;;;;;14.15;4.25;;;;;;;;;;4998271;28;20045;-48
2022/08/17 10:14:47;;;;;;;12.43;4.85;;;;;;;;;;5001761;28;20030;-51
2022/08/17 10:17:37;;;;;;;13.55;4.82;;;;;;;;;;5001067;28;20100;-53
2022/08/17 10:20:26;;;;;;;15.40;4.78;;;;;;;;;;4997038;28;20037;-49
2022/08/17 10:28:57;;;;;;;18.77;5.53;;;;;;;;;;4998571;28;20046;-51
2022/08/17 10:31:37;;;;;;;13.25;5.00;;;;;;;;;;5041112;28;20013;-46
2022/08/17 10:34:11;;;;;;;17.80;4.45;;;;;;;;;;5039028;28;20424;-49
2022/08/17 10:36:51;;;;;;;14.60;5.05;;;;;;;;;;5043897;28;20068;-49
2022/08/17 10:39:33;;;;;;;14.02;4.43;;;;;;;;;;5042925;28;20115;-46
2022/08/17 10:42:12;;;;;;;11.93;4.25;;;;;;;;;;5047005;28;20930;-48
2022/08/17 10:44:55;;;;;;;11.88;4.07;;;;;;;;;;5060513;28;20025;-47
2022/08/17 10:47:25;;;;;;;13.98;4.80;;;;;;;;;;5042897;28;20086;-49
2022/08/17 10:49:55;;;;;;;14.20;4.07;;;;;;;;;;5045683;28;20371;-49
2022/08/17 10:52:21;;;;;;;10.70;5.07;;;;;;;;;;5039339;28;20029;-49
2022/08/17 10:55:09;;;;;;;25.40;5.43;;;;;;;;;;5038522;28;20045;-47
2022/08/17 10:57:36;;;;;;;8.95;4.07;;;;;;;;;;5040177;28;20044;-49
2022/08/17 11:00:16;;;;;;;12.25;4.60;;;;;;;;;;5040767;28;20052;-47
2022/08/17 11:02:51;;;;;;;11.57;4.50;;;;;;;;;;5054775;28;20082;-51
2022/08/17 11:05:27;;;;;;;12.00;5.68;;;;;;;;;;5043872;28;20117;-48
2022/08/17 11:07:53;;;;;;;11.52;4.72;;;;;;;;;;5045245;28;20496;-50
2022/08/17 11:10:41;;;;;;;14.07;5.53;;;;;;;;;;5046859;28;20033;-50
2022/08/17 11:13:21;;;;;;;14.27;4.70;;;;;;;;;;5043705;28;20029;-47
2022/08/17 11:16:11;;;;;;;11.07;4.70;;;;;;;;;;5046831;28;20033;-49
2022/08/17 11:18:52;;;;;;;14.15;5.05;;;;;;;;;;5044184;28;20037;-47
2022/08/17 11:21:46;;;;;;;16.08;4.97;;;;;;;;;;5041261;28;20029;-50
2022/08/17 11:24:16;;;;;;;16.65;4.95;;;;;;;;;;5044388;28;20083;-48
2022/08/17 11:26:57;;;;;;;13.30;5.10;;;;;;;;;;5043071;28;20051;-52
2022/08/17 11:29:29;;;;;;;14.63;5.20;;;;;;;;;;5046551;28;20552;-46
2022/08/17 11:32:00;;;;;;;12.00;4.43;;;;;;;;;;5044839;28;20111;-48
2022/08/17 11:34:29;;;;;;;12.60;5.23;;;;;;;;;;5043226;28;20474;-46
2022/08/17 11:37:02;;;;;;;8.48;4.80;;;;;;;;;;5039731;28;20022;-50
2022/08/17 11:39:36;;;;;;;13.30;4.35;;;;;;;;;;5041165;28;20056;-46
2022/08/17 11:42:36;;;;;;;11.70;4.90;;;;;;;;;;5045326;28;20096;-48
2022/08/17 11:45:29;;;;;;;10.40;4.47;;;;;;;;;;5032859;28;20174;-48
2022/08/17 11:53:52;;;;;;;16.55;5.35;;;;;;;;;;5043433;28;20039;-47
2022/08/17 11:56:30;;;;;;;12.68;4.70;;;;;;;;;;5040343;28;20045;-49
2022/08/17 11:59:00;;;;;;;13.70;4.32;;;;;;;;;;5041454;28;20115;-51
2022/08/17 12:01:27;;;;;;;11.75;3.60;;;;;;;;;;5044746;28;20102;-53
2022/08/17 12:04:02;;;;;;;19.10;4.13;;;;;;;;;;5041352;28;20108;-47
2022/08/17 12:07:09;;;;;;;10.57;3.38;;;;;;;;;;5041302;28;20037;-47
2022/08/17 12:09:44;;;;;;;13.50;3.90;;;;;;;;;;5042508;28;20029;-48
2022/08/17 12:12:14;;;;;;;8.70;3.60;;;;;;;;;;5040849;28;20078;-48
2022/08/17 12:14:56;;;;;;;12.85;3.38;;;;;;;;;;5045638;28;20125;-50
2022/08/17 12:17:23;;;;;;;;;;;;;;;;;;5043318;28;20115;-50
2022/08/17 12:19:49;;;;;;;12.68;4.30;;;;;;;;;;5043789;28;20153;-48
2022/08/17 12:22:28;;;;;;;12.27;4.45;;;;;;;;;;5042429;28;20374;-46
2022/08/17 12:25:19;;;;;;;16.92;3.97;;;;;;;;;;5045137;28;20112;-46
2022/08/17 12:27:49;;;;;;;12.15;5.00;;;;;;;;;;5045543;28;20385;-49
2022/08/17 12:30:20;;;;;;;16.23;4.50;;;;;;;;;;5039720;28;20033;-47
2022/08/17 12:32:47;;;;;;;15.30;4.00;;;;;;;;;;5043419;28;20466;-48
2022/08/17 12:35:33;;;;;;;12.15;4.00;;;;;;;;;;5041197;28;20524;-49
2022/08/17 12:38:00;;;;;;;13.25;4.25;;;;;;;;;;5044229;28;20044;-46
2022/08/17 12:40:30;;;;;;;10.43;3.80;;;;;;;;;;5041317;28;20037;-47
2022/08/17 12:42:57;;;;;;;11.82;4.07;;;;;;;;;;5041667;28;20520;-47
2022/08/17 12:45:30;;;;;;;12.98;4.60;;;;;;;;;;5044905;28;20157;-47
2022/08/17 12:48:23;;;;;;;9.63;4.35;;;;;;;;;;5042169;28;20029;-48
2022/08/17 12:50:50;;;;;;;13.73;4.80;;;;;;;;;;5041822;28;20037;-47
2022/08/17 12:53:20;;;;;;;18.30;4.78;;;;;;;;;;5042990;28;20112;-48
2022/08/17 12:55:48;;;;;;;14.63;4.78;;;;;;;;;;5044846;28;20052;-49
2022/08/17 12:58:28;;;;;;;21.73;5.05;;;;;;;;;;5041870;28;20025;-48
2022/08/17 13:01:00;;;;;;;15.00;4.55;;;;;;;;;;5041962;28;20102;-49
2022/08/17 13:03:29;;;;;;;16.15;3.85;;;;;;;;;;5041746;28;20029;-47
2022/08/17 13:06:08;;;;;;;11.88;3.92;;;;;;;;;;5043226;28;20482;-53
2022/08/17 13:08:41;;;;;;;10.82;3.90;;;;;;;;;;5042905;28;20053;-47
2022/08/17 13:11:13;;;;;;;13.52;4.25;;;;;;;;;;5042754;28;20393;-46
2022/08/17 13:13:41;;;;;;;14.02;4.22;;;;;;;;;;5043407;28;20112;-48
2022/08/17 13:16:10;;;;;;;12.55;4.18;;;;;;;;;;5042045;28;20116;-49
2022/08/17 13:18:38;;;;;;;17.88;4.18;;;;;;;;;;5042748;28;20029;-54
2022/08/17 13:21:10;;;;;;;8.95;3.60;;;;;;;;;;5040044;28;20091;-48
2022/08/17 13:23:37;;;;;;;15.38;4.38;;;;;;;;;;5041265;28;20503;-50
2022/08/17 13:26:13;;;;;;;11.80;4.35;;;;;;;;;;5044021;28;20029;-51
2022/08/17 13:28:48;;;;;;;13.20;4.20;;;;;;;;;;5044431;28;20025;-48
2022/08/17 13:31:31;;;;;;;13.95;4.70;;;;;;;;;;5043974;28;20037;-50
2022/08/17 13:34:18;;;;;;;13.45;3.83;;;;;;;;;;5037008;28;20394;-52
2022/08/17 13:36:45;;;;;;;12.40;3.95;;;;;;;;;;5038442;28;20025;-54
2022/08/17 13:39:18;;;;;;;14.55;4.30;;;;;;;;;;5044276;28;20391;-48
2022/08/17 13:41:46;;;;;;;9.82;3.42;;;;;;;;;;5041844;28;20057;-52
2022/08/17 13:44:36;;;;;;;7.22;3.13;;;;;;;;;;5039831;28;20036;-52
2022/08/17 13:47:17;;;;;;;9.55;3.65;;;;;;;;;;5043193;28;20372;-47
2022/08/17 13:49:43;;;;;;;7.60;3.17;;;;;;;;;;5040468;28;20448;-47
2022/08/17 13:52:38;;;;;;;13.80;4.10;;;;;;;;;;5042058;28;20401;-46
2022/08/17 13:55:16;;;;;;;15.57;3.53;;;;;;;;;;5043245;28;20492;-48
2022/08/17 13:57:50;;;;;;;9.50;3.08;;;;;;;;;;5042929;28;20087;-52
2022/08/17 14:00:38;;;;;;;16.50;3.40;;;;;;;;;;5040592;28;20409;-48
2022/08/17 14:03:04;;;;;;;12.48;2.75;;;;;;;;;;5043951;28;20469;-52
2022/08/17 14:05:30;;;;;;;9.05;2.97;;;;;;;;;;5045289;28;20123;-48
2022/08/17 14:07:59;;;;;;;10.13;2.60;;;;;;;;;;5039418;28;20108;-49
2022/08/17 14:10:25;;;;;;;7.82;3.45;;;;;;;;;;5041753;28;20025;-48
2022/08/17 14:12:51;;;;;;;9.10;3.30;;;;;;;;;;5039844;28;20055;-48
2022/08/17 14:15:23;;;;;;;7.75;2.33;;;;;;;;;;5042347;28;20553;-47
2022/08/17 14:17:49;;;;;;;;;;;;;;;;;;5047513;28;20098;-48
2022/08/17 14:20:18;;;;;;;9.07;2.75;;;;;;;;;;5046075;28;20335;-47
2022/08/17 14:22:47;;;;;;;5.90;2.53;;;;;;;;;;5044623;28;20033;-51
2022/08/17 14:25:15;;;;;;;6.28;2.42;;;;;;;;;;5049740;28;20028;-48
2022/08/17 14:27:41;;;;;;;6.35;2.05;;;;;;;;;;5048166;28;20033;-47
2022/08/17 14:30:07;;;;;;;7.07;2.72;;;;;;;;;;5048812;28;20017;-47
2022/08/17 14:32:35;;;;;;;13.82;2.38;;;;;;;;;;5042675;28;20021;-46
2022/08/17 14:35:04;;;;;;;7.88;2.40;;;;;;;;;;5046696;28;20059;-48
2022/08/17 14:37:33;;;;;;;6.78;2.38;;;;;;;;;;5048198;28;20737;-46
2022/08/17 14:40:01;;;;;;;12.43;2.22;;;;;;;;;;5047561;28;20032;-53
2022/08/17 14:42:31;;;;;;;6.35;2.53;;;;;;;;;;5046815;28;20036;-49
2022/08/17 14:44:57;;;;;;;9.05;2.42;;;;;;;;;;5046806;28;20021;-48
2022/08/17 14:47:25;;;;;;;9.07;2.15;;;;;;;;;;5045159;28;20107;-49
2022/08/17 14:49:51;;;;;;;7.82;2.05;;;;;;;;;;5043582;28;20025;-52
2022/08/17 14:52:22;;;;;;;4.38;1.70;;;;;;;;;;5046525;28;20021;-49
2022/08/17 14:54:50;;;;;;;8.43;2.20;;;;;;;;;;5044818;28;20037;-53
2022/08/17 14:57:21;;;;;;;4.90;2.10;;;;;;;;;;5046558;28;20029;-48
2022/08/17 14:59:50;;;;;;;6.70;2.20;;;;;;;;;;5059201;28;20556;-50
2022/08/17 15:02:15;;;;;;;4.90;1.92;;;;;;;;;;5042422;28;20036;-47
2022/08/17 15:04:41;;;;;;;7.70;2.15;;;;;;;;;;5042823;28;20029;-48
2022/08/17 15:07:07;;;;;;;7.90;1.95;;;;;;;;;;5040706;28;20036;-46
2022/08/17 15:09:33;;;;;;;6.85;1.73;;;;;;;;;;5045272;28;20060;-50
2022/08/17 15:12:05;;;;;;;4.50;1.80;;;;;;;;;;5038840;28;20248;-49
2022/08/17 15:14:31;;;;;;;5.63;2.13;;;;;;;;;;5042055;28;20029;-47
2022/08/17 15:16:58;;;;;;;4.70;2.10;;;;;;;;;;5049742;28;20116;-53
2022/08/17 15:19:24;;;;;;;13.18;1.98;;;;;;;;;;5044479;28;20037;-47
2022/08/17 15:21:50;;;;;;;4.80;1.80;;;;;;;;;;5043147;28;20044;-53
2022/08/17 15:24:15;;;;;;;3.83;1.90;;;;;;;;;;5043812;28;20354;-49
2022/08/17 15:26:41;;;;;;;7.53;1.70;;;;;;;;;;5046475;28;20066;-48
2022/08/17 15:29:08;;;;;;;8.52;2.10;;;;;;;;;;5044497;28;20036;-48
2022/08/17 15:31:34;;;;;;;6.43;2.00;;;;;;;;;;5042822;28;20108;-47
2022/08/17 15:34:00;;;;;;;3.72;1.70;;;;;;;;;;5042266;28;20108;-52
2022/08/17 15:36:26;;;;;;;8.57;2.10;;;;;;;;;;5040937;28;20543;-46
2022/08/17 15:38:52;;;;;;;6.00;2.33;;;;;;;;;;5041746;28;20025;-53
2022/08/17 15:41:18;;;;;;;5.30;1.77;;;;;;;;;;5046104;28;20024;-49